createdAt,value
2019-04-01T07:11:57.638Z,17.95
2019-04-01T07:14:30.376Z,21.67
2019-04-01T07:17:03.887Z,20.70
2019-04-01T07:19:36.443Z,18.67
2019-04-01T07:22:09.343Z,18.80
2019-04-01T07:24:42.774Z,19.70
2019-04-01T07:27:15.798Z,17.70
2019-04-01T07:29:48.593Z,18.02
2019-04-01T07:32:21.117Z,16.90
2019-04-01T07:34:53.649Z,16.45
2019-04-01T07:37:26.165Z,15.68
2019-04-01T07:39:58.545Z,15.83
2019-04-01T07:42:31.318Z,16.57
2019-04-01T07:45:03.930Z,13.90
2019-04-01T07:47:36.745Z,15.30
2019-04-01T07:50:12.058Z,13.80
2019-04-01T07:52:43.072Z,11.63
2019-04-01T07:55:15.471Z,12.25
2019-04-01T07:57:48.432Z,11.08
2019-04-01T08:00:20.951Z,11.43
2019-04-01T08:02:54.384Z,11.30
2019-04-01T08:05:27.085Z,11.55
2019-04-01T08:08:00.126Z,13.20
2019-04-01T08:10:33.076Z,12.30
2019-04-01T08:13:05.758Z,11.45
2019-04-01T08:15:38.283Z,11.85
2019-04-01T08:18:11.324Z,11.25
2019-04-01T08:20:45.222Z,11.80
2019-04-01T08:23:20.789Z,14.13
2019-04-01T08:25:52.972Z,13.38
2019-04-01T08:28:26.016Z,12.30
2019-04-01T08:30:58.503Z,12.47
2019-04-01T08:33:31.142Z,12.98
2019-04-01T08:36:03.550Z,12.47
2019-04-01T08:38:36.191Z,14.55
2019-04-01T08:41:09.422Z,12.80
2019-04-01T08:46:13.615Z,12.82
2019-04-01T08:48:46.217Z,13.38
2019-04-01T08:51:19.142Z,12.40
2019-04-01T08:53:52.031Z,12.95
2019-04-01T08:56:25.911Z,17.87
2019-04-01T08:58:58.745Z,16.17
2019-04-01T09:01:35.433Z,12.63
2019-04-01T09:04:05.759Z,12.35
2019-04-01T09:06:38.024Z,13.32
2019-04-01T09:09:10.495Z,12.77
2019-04-01T09:11:43.812Z,12.25
2019-04-01T09:14:16.927Z,12.55
2019-04-01T09:19:22.001Z,11.70
2019-04-01T09:21:54.972Z,12.53
2019-04-01T09:24:27.520Z,11.22
2019-04-01T09:26:59.952Z,13.50
2019-04-01T09:29:32.437Z,12.70
2019-04-01T09:32:04.976Z,12.45
2019-04-01T09:34:37.500Z,11.38
2019-04-01T09:37:10.459Z,11.38
2019-04-01T09:42:14.654Z,10.98
2019-04-01T09:44:47.216Z,10.08
2019-04-01T09:47:19.787Z,9.80
2019-04-01T09:49:52.853Z,8.93
2019-04-01T09:54:56.994Z,8.03
2019-04-01T09:57:29.581Z,9.35
2019-04-01T10:00:02.579Z,8.30
2019-04-01T10:02:36.824Z,8.18
2019-04-01T10:05:10.633Z,8.70
2019-04-01T10:07:43.761Z,8.13
2019-04-01T10:12:47.982Z,6.75
2019-04-01T10:15:21.945Z,8.43
2019-04-01T10:17:54.424Z,7.60
2019-04-01T10:20:27.218Z,8.05
2019-04-01T10:22:59.677Z,7.25
2019-04-01T10:25:32.570Z,6.37
2019-04-01T10:28:05.381Z,7.22
2019-04-01T10:30:37.898Z,8.15
2019-04-01T10:33:10.875Z,12.95
2019-04-01T10:35:43.985Z,8.23
2019-04-01T10:38:16.932Z,8.37
2019-04-01T10:40:49.731Z,8.05
2019-04-01T10:43:22.050Z,8.43
2019-04-01T10:45:54.695Z,9.43
2019-04-01T10:48:27.214Z,7.25
2019-04-01T10:50:59.951Z,7.72
2019-04-01T10:53:32.626Z,8.35
2019-04-01T10:56:05.214Z,8.45
2019-04-01T10:58:37.555Z,8.00
2019-04-01T11:01:10.636Z,8.20
2019-04-01T11:03:43.554Z,10.68
2019-04-01T11:08:47.372Z,8.18
2019-04-01T11:11:19.876Z,8.15
2019-04-01T11:13:53.926Z,8.10
2019-04-01T11:16:27.245Z,8.20
2019-04-01T11:19:01.266Z,7.83
2019-04-01T11:21:34.220Z,9.00
2019-04-01T11:24:07.721Z,7.30
2019-04-01T11:26:40.795Z,8.93
2019-04-01T11:29:14.634Z,7.97
2019-04-01T11:31:47.246Z,8.65
2019-04-01T11:34:20.007Z,8.85
2019-04-01T11:36:52.658Z,7.30
2019-04-01T11:39:24.687Z,7.90
2019-04-01T11:41:57.242Z,7.67
2019-04-01T11:44:29.938Z,7.62
2019-04-01T11:47:02.922Z,8.28
2019-04-01T11:52:06.810Z,8.75
2019-04-01T11:57:11.572Z,8.33
2019-04-01T11:59:44.320Z,8.25
2019-04-01T12:02:17.186Z,7.92
2019-04-01T12:07:21.353Z,8.38
2019-04-01T12:12:25.550Z,8.80
2019-04-01T12:17:29.704Z,8.43
2019-04-01T12:20:02.667Z,8.50
2019-04-01T12:22:35.613Z,7.83
2019-04-01T12:25:09.351Z,7.80
2019-04-01T12:27:42.443Z,8.18
2019-04-01T12:30:15.107Z,8.73
2019-04-01T12:32:47.781Z,9.38
2019-04-01T12:35:21.523Z,8.58
2019-04-01T12:37:55.125Z,10.13
2019-04-01T12:40:30.708Z,8.20
2019-04-01T12:43:03.491Z,9.05
2019-04-01T12:48:07.439Z,8.60
2019-04-01T12:50:40.040Z,8.98
2019-04-01T12:53:12.664Z,8.58
2019-04-01T12:55:45.182Z,9.10
2019-04-01T12:58:18.101Z,8.25
2019-04-01T13:13:38.859Z,7.65
2019-04-01T13:16:10.428Z,8.25
2019-04-01T13:18:42.332Z,7.90
2019-04-01T13:21:14.064Z,8.33
2019-04-01T13:23:46.171Z,9.40
2019-04-01T13:26:18.111Z,9.33
2019-04-01T13:28:51.063Z,9.63
2019-04-01T13:31:23.930Z,9.48
2019-04-01T13:33:55.989Z,9.20
2019-04-01T13:36:27.925Z,9.73
2019-04-01T13:38:59.758Z,9.70
2019-04-01T13:41:41.769Z,10.15
2019-04-01T13:44:08.569Z,9.50
2019-04-01T13:46:38.118Z,9.40
2019-04-01T13:49:10.103Z,10.55
2019-04-01T13:51:43.763Z,10.78
2019-04-01T13:54:15.596Z,9.25
2019-04-01T13:56:47.260Z,9.83
2019-04-01T13:59:19.072Z,9.80
2019-04-01T14:01:50.753Z,9.35
2019-04-01T14:04:22.505Z,10.00
2019-04-01T14:06:54.618Z,10.08
2019-04-01T14:09:26.633Z,9.93
2019-04-01T14:11:58.372Z,9.10
2019-04-01T14:14:30.175Z,9.83
2019-04-01T14:17:02.174Z,9.53
2019-04-01T14:19:34.037Z,10.28
2019-04-01T14:22:05.632Z,9.13
2019-04-01T14:24:37.225Z,9.23
2019-04-01T14:27:09.324Z,9.33
2019-04-01T14:32:12.390Z,9.40
2019-04-01T14:34:44.184Z,9.20
2019-04-01T14:37:25.045Z,9.78
2019-04-01T14:39:49.145Z,8.68
2019-04-01T14:42:20.834Z,10.28
2019-04-01T14:44:58.825Z,9.75
2019-04-01T14:47:30.549Z,13.58
2019-04-01T14:50:03.403Z,9.70
2019-04-01T14:52:35.788Z,8.43
2019-04-01T14:55:08.160Z,10.13
2019-04-01T14:57:40.101Z,11.15
2019-04-01T15:00:14.188Z,13.50
2019-04-01T15:02:46.064Z,11.68
2019-04-01T15:05:17.985Z,12.05
2019-04-01T15:07:49.644Z,15.80
2019-04-01T15:10:21.530Z,8.95
2019-04-01T15:13:04.418Z,8.78
2019-04-01T15:15:26.569Z,8.98
2019-04-01T15:17:58.315Z,8.83
2019-04-01T15:20:30.393Z,7.87
2019-04-01T15:23:02.210Z,8.23
2019-04-01T15:25:33.942Z,8.35
2019-04-01T15:28:05.783Z,7.85
2019-04-01T15:30:37.436Z,8.73
2019-04-01T15:33:09.395Z,8.83
2019-04-01T15:35:41.575Z,9.08
2019-04-01T15:38:13.540Z,14.38
2019-04-01T15:40:46.316Z,8.80
2019-04-01T15:43:18.779Z,8.98
2019-04-01T15:45:50.707Z,7.47
2019-04-01T15:48:22.404Z,8.25
2019-04-01T15:50:54.348Z,8.70
2019-04-01T15:53:26.286Z,9.00
2019-04-01T15:55:59.511Z,9.13
2019-04-01T15:58:31.367Z,9.65
2019-04-01T16:01:03.434Z,8.15
2019-04-01T16:03:35.150Z,8.83
2019-04-01T16:06:07.772Z,9.13
2019-04-01T16:08:39.679Z,8.13
2019-04-01T16:11:11.415Z,7.67
2019-04-01T16:13:43.485Z,7.45
2019-04-01T16:16:15.109Z,8.18
2019-04-01T16:18:46.709Z,9.58
2019-04-01T16:21:18.382Z,8.45
2019-04-01T16:23:50.276Z,8.43
2019-04-01T16:26:21.915Z,8.45
2019-04-01T16:28:53.674Z,8.53
2019-04-01T16:31:26.231Z,9.80
2019-04-01T16:33:58.378Z,9.65
2019-04-01T16:36:30.128Z,10.80
2019-04-01T16:39:01.888Z,15.63
2019-04-01T16:41:35.118Z,20.55
2019-04-01T16:44:06.897Z,18.87
2019-04-01T16:46:38.917Z,9.68
2019-04-01T16:49:10.472Z,10.25
2019-04-01T16:51:42.374Z,17.35
2019-04-01T16:54:14.144Z,9.33
2019-04-01T16:56:45.557Z,8.48
2019-04-01T16:59:17.295Z,11.38
2019-04-01T17:01:49.037Z,12.15
2019-04-01T17:04:20.921Z,10.93
2019-04-01T17:06:56.031Z,15.05
2019-04-01T17:09:27.684Z,17.48
2019-04-01T17:11:59.763Z,17.50
2019-04-01T17:14:31.452Z,14.45
2019-04-01T17:17:03.340Z,16.37
2019-04-01T17:19:34.875Z,22.13
2019-04-01T17:22:06.473Z,20.62
2019-04-01T17:24:38.178Z,24.67
2019-04-01T17:27:13.688Z,30.85
2019-04-01T17:29:47.051Z,22.67
2019-04-01T17:32:18.572Z,21.73
2019-04-01T17:34:50.319Z,18.05
2019-04-01T17:37:21.927Z,16.97
2019-04-01T17:39:53.621Z,15.58
2019-04-01T17:42:25.414Z,12.80
2019-04-01T17:44:59.375Z,16.20
2019-04-01T17:47:30.991Z,15.53
2019-04-01T17:50:02.884Z,14.58
2019-04-01T17:52:34.882Z,11.33
2019-04-01T17:55:06.740Z,12.78
2019-04-01T17:57:38.367Z,13.15
2019-04-01T18:00:14.593Z,13.98
2019-04-01T18:02:46.336Z,15.25
2019-04-01T18:05:18.423Z,14.43
2019-04-01T18:07:50.203Z,13.62
2019-04-01T18:10:22.244Z,11.55
2019-04-01T18:12:53.848Z,14.20
2019-04-01T18:15:25.483Z,12.98
2019-04-01T18:17:57.105Z,16.20
2019-04-01T18:20:28.742Z,11.28
2019-04-01T18:23:00.457Z,10.28
2019-04-01T18:25:32.378Z,12.65
2019-04-01T18:28:04.411Z,15.15
2019-04-01T18:30:35.865Z,13.00
2019-04-01T18:33:07.613Z,13.35
2019-04-01T18:35:39.193Z,12.60
2019-04-01T18:38:10.938Z,14.98
2019-04-01T18:40:42.889Z,15.70
2019-04-01T18:43:14.610Z,10.55
2019-04-01T18:45:46.380Z,9.45
2019-04-01T18:48:19.353Z,9.75
2019-04-01T18:50:51.614Z,33.35
2019-04-01T18:53:23.636Z,53.15
2019-04-01T18:55:55.359Z,52.30
2019-04-01T18:58:26.919Z,45.38
2019-04-01T19:00:59.865Z,53.10
2019-04-01T19:03:31.348Z,49.67
2019-04-01T19:06:03.165Z,28.73
2019-04-01T19:08:34.822Z,28.62
2019-04-01T19:11:06.654Z,30.02
2019-04-01T19:13:38.408Z,29.63
2019-04-01T19:16:12.106Z,38.05
2019-04-01T19:21:14.694Z,18.75
2019-04-01T19:23:46.375Z,18.98
2019-04-01T19:26:18.126Z,25.65
2019-04-01T19:28:49.840Z,24.35
2019-04-01T19:31:21.391Z,22.80
2019-04-01T19:33:53.393Z,12.55
2019-04-01T19:36:24.806Z,14.07
2019-04-01T19:38:56.325Z,13.83
2019-04-01T19:41:30.127Z,26.73
2019-04-01T19:44:01.973Z,14.90
2019-04-01T19:46:34.003Z,15.63
2019-04-01T19:49:05.753Z,15.70
2019-04-01T19:51:38.706Z,15.30
2019-04-01T19:54:10.395Z,14.98
2019-04-01T19:56:44.842Z,11.08
2019-04-01T19:59:16.341Z,10.10
2019-04-01T20:01:48.253Z,10.05
2019-04-01T20:04:21.204Z,11.08
2019-04-01T20:06:52.943Z,9.43
2019-04-01T20:09:24.633Z,34.03
2019-04-01T20:11:58.440Z,18.87
2019-04-01T20:14:34.754Z,19.00
2019-04-01T20:17:09.970Z,20.52
2019-04-01T20:19:41.351Z,22.02
2019-04-01T20:22:13.122Z,29.87
2019-04-01T20:24:44.631Z,42.78
2019-04-01T20:27:16.238Z,36.73
2019-04-01T20:29:47.885Z,57.90
2019-04-01T20:32:20.113Z,93.35
2019-04-01T20:34:57.267Z,89.65
2019-04-01T20:39:56.115Z,66.92
2019-04-01T20:42:28.044Z,77.47
2019-04-01T20:44:59.572Z,99.32
2019-04-01T20:47:31.385Z,104.87
2019-04-01T20:50:04.776Z,64.10
2019-04-01T20:55:07.942Z,50.65
2019-04-01T20:57:39.602Z,52.83
2019-04-01T21:00:11.850Z,52.35
2019-04-01T21:02:43.730Z,55.05
2019-04-01T21:05:15.582Z,59.00
2019-04-01T21:07:47.576Z,55.50
2019-04-01T21:10:19.413Z,60.23
2019-04-01T21:12:50.892Z,60.63
2019-04-01T21:15:22.505Z,47.53
2019-04-01T21:17:54.128Z,41.90
2019-04-01T21:20:25.962Z,39.92
2019-04-01T21:22:57.778Z,41.00
2019-04-01T21:25:30.198Z,30.00
2019-04-01T21:28:01.994Z,32.08
2019-04-01T21:30:33.833Z,32.70
2019-04-01T21:33:05.534Z,29.10
2019-04-01T21:35:38.163Z,26.17
2019-04-01T21:38:10.244Z,25.37
2019-04-01T21:40:41.976Z,26.52
2019-04-01T21:43:13.561Z,24.25
2019-04-01T21:45:45.523Z,24.95
2019-04-01T21:48:17.217Z,25.12
2019-04-01T21:50:48.701Z,22.80
2019-04-01T21:53:20.286Z,22.85
2019-04-01T21:55:52.037Z,24.15
2019-04-01T21:58:23.623Z,19.05
2019-04-01T22:00:57.152Z,23.57
2019-04-01T22:03:30.208Z,20.27
2019-04-01T22:06:01.997Z,18.07
2019-04-01T22:08:33.624Z,26.35
2019-04-01T22:11:05.594Z,33.18
2019-04-01T22:13:37.588Z,28.75
2019-04-01T22:16:09.270Z,29.52
2019-04-01T22:18:40.596Z,28.20
2019-04-01T22:21:12.174Z,19.45
2019-04-01T22:23:43.786Z,18.77
2019-04-01T22:26:15.242Z,19.57
2019-04-01T22:28:46.679Z,19.60
2019-04-01T22:31:18.226Z,18.77
2019-04-01T22:33:49.976Z,16.57
2019-04-01T22:36:30.573Z,14.68
2019-04-01T22:38:54.959Z,14.23
2019-04-01T22:41:26.471Z,13.75
2019-04-01T22:43:57.940Z,13.30
2019-04-01T22:46:29.525Z,13.35
2019-04-01T22:49:01.080Z,12.75
2019-04-01T22:51:32.580Z,13.35
2019-04-01T22:54:04.102Z,12.88
2019-04-01T22:56:35.714Z,13.15
2019-04-01T22:59:07.557Z,13.25
2019-04-01T23:01:39.059Z,14.15
2019-04-01T23:04:10.654Z,16.90
2019-04-01T23:06:42.497Z,16.50
2019-04-01T23:09:14.011Z,17.30
2019-04-01T23:11:45.451Z,17.23
2019-04-01T23:14:17.304Z,16.75
2019-04-01T23:16:49.551Z,16.70
2019-04-01T23:19:20.946Z,17.52
2019-04-01T23:21:52.593Z,16.05
2019-04-01T23:24:24.188Z,15.70
2019-04-01T23:26:56.106Z,15.00
2019-04-01T23:29:28.974Z,15.50
2019-04-01T23:32:00.523Z,15.98
2019-04-01T23:34:32.112Z,15.43
2019-04-01T23:37:03.689Z,15.60
2019-04-01T23:39:35.221Z,15.30
2019-04-01T23:42:06.685Z,15.65
2019-04-01T23:44:38.202Z,14.20
2019-04-01T23:47:09.581Z,13.40
2019-04-01T23:49:41.240Z,12.60
2019-04-01T23:52:14.176Z,12.95
2019-04-01T23:54:45.716Z,15.32
2019-04-01T23:57:17.370Z,15.05
2019-04-01T23:59:49.078Z,15.65
